Gulf Breeze, FL

12:18 PM CDT on September 03, 2015 (GMT -0500)
Waterford Sound | | Change Station
CLOSE
Current Station
Personal Weather Station
Location: Gulf Breeze, FL
Elevation: 49 ft
Nearby Weather Stations

Elev 49 ft 30.40 °N, 86.97 °W | Updated 2 minutes ago

Partly Cloudy
Partly Cloudy
88.5 °F
Feels Like 96 °F
N
3.2
Wind Variable Wind from West

Today
High -- | Low -- °F
--% Chance of Precip.
Yesterday
High -- | Low -- °F
Precip. -- in
6:25 AM 7:08 PM
Waning Gibbous, 68% visible
Pressure 30.01 in
Visibility 10.0 miles
Clouds Clear
Heat Index 96 °F
Dew Point 73 °F
Humidity 60%
Rainfall 0.00 in
Snow Depth Not available.
UV 11 out of 12
Pollen 7.40 out of 12
Air Quality Not available.
Flu Activity Not available.
METAR KPNS 031653Z 30004KT 10SM CLR 29/22 A3001 RMK AO2 SLP162 T02940217 $
Pressure 30.01 in
Visibility 10.0 miles
Clouds Clear
Heat Index 96 °F
Dew Point 73 °F
Humidity 60%
Rainfall 0.00 in
Snow Depth Not available.
UV 11 out of 12
Pollen 7.40 out of 12
Air Quality Not available.
Flu Activity Not available.
METAR KPNS 031653Z 30004KT 10SM CLR 29/22 A3001 RMK AO2 SLP162 T02940217 $

10-Day Weather Forecast

×

Almanac

Astronomy

Sep. 03, 2015 Rise Set
Actual Time
Civil Twilight
Nautical Twilight
Astronomical Twilight
Moon
Length of Visible Light
Length of Day
Tomorrow will be .
, % of the Moon is Illuminated

Today's Extremes

State Highs State Lows

Community

WunderPhotos

Upload Photos

1,851,990 photos uploaded!

WunderBlogs® & News

Nearby

Air Quality

  Air Quality AQ Index Pollutant
Not available.

Snow Depth

Station Depth Elevation

Earthquake Activity

City Distance Mag. Time & Date
Minimum magnitude displayed is 2.5.

Coastal Water Temperatures

Place Temperature

Stations

Nearby Weather Stations

Station Location Temp. Windchill Dew Point Humidity Wind Precip. Elev Updated Type